Time;durP1;ratioP1;P1;durP2;ratioP2;P2;SDS_P1;SDS_P2;PMS_P1;PMS_P2;Temp;Humidity;BMP_temperature;BMP_pressure;BME280_temperature;BME280_humidity;BME280_pressure;Samples;Min_cycle;Max_cycle;Signal;HPM_P1;HPM_P2
2021/01/07 00:00:41;;;;;;;37.92;17.02;;;;;;;2.19;76.28;101103.19;4414445;32;20085;-78
2021/01/07 00:03:06;;;;;;;36.80;16.10;;;;;;;2.18;76.39;101100.78;4403574;32;20085;-78
2021/01/07 00:05:32;;;;;;;41.13;17.33;;;;;;;2.19;76.12;101105.13;4412031;32;20061;-76
2021/01/07 00:07:58;;;;;;;38.75;16.48;;;;;;;2.21;76.04;101102.81;4417585;32;20450;-76
2021/01/07 00:10:24;;;;;;;34.55;16.15;;;;;;;2.26;75.76;101092.16;4417029;32;20378;-75
2021/01/07 00:12:49;;;;;;;32.58;15.98;;;;;;;2.23;75.71;101101.25;4412121;32;20034;-76
2021/01/07 00:15:15;;;;;;;33.85;15.93;;;;;;;2.18;76.05;101096.03;4408091;32;20105;-76
2021/01/07 00:17:41;;;;;;;33.20;14.90;;;;;;;2.08;76.10;101086.34;4411387;32;20034;-77
2021/01/07 00:20:10;;;;;;;37.65;15.65;;;;;;;2.17;76.11;101094.41;4410209;32;20433;-75
2021/01/07 00:22:36;;;;;;;33.38;15.55;;;;;;;2.24;76.29;101090.94;4416245;32;20104;-77
2021/01/07 00:25:05;;;;;;;36.22;14.63;;;;;;;2.30;76.24;101081.13;4417318;32;20057;-76
2021/01/07 00:27:30;;;;;;;33.67;14.95;;;;;;;2.33;75.60;101086.72;4416145;32;20022;-77
2021/01/07 00:29:56;;;;;;;30.45;13.35;;;;;;;2.21;75.65;101081.37;4407808;32;20030;-77
2021/01/07 00:32:22;;;;;;;31.83;13.13;;;;;;;2.23;75.79;101075.44;4411347;32;20553;-76
2021/01/07 00:34:48;;;;;;;24.75;12.23;;;;;;;2.33;75.94;101072.81;4416768;32;20177;-76
2021/01/07 00:37:14;;;;;;;28.48;12.60;;;;;;;2.33;75.61;101072.03;4415291;32;20104;-77
2021/01/07 00:39:40;;;;;;;27.02;13.02;;;;;;;2.39;75.74;101070.53;4415114;32;20392;-78
2021/01/07 00:42:05;;;;;;;28.38;12.57;;;;;;;2.41;75.97;101073.72;4404181;32;20400;-76
2021/01/07 00:44:31;;;;;;;26.95;11.18;;;;;;;2.45;75.77;101055.16;4416239;32;20110;-77
2021/01/07 00:46:57;;;;;;;23.73;10.52;;;;;;;2.51;75.59;101062.78;4411305;32;20530;-77
2021/01/07 00:49:22;;;;;;;32.00;11.45;;;;;;;2.49;75.40;101067.91;4408585;32;20459;-76
2021/01/07 00:51:48;;;;;;;20.95;10.63;;;;;;;2.45;75.67;101053.16;4414952;32;20156;-76
2021/01/07 00:54:14;;;;;;;21.30;10.15;;;;;;;2.43;75.21;101063.06;4409099;32;20042;-78
2021/01/07 00:56:40;;;;;;;21.75;9.63;;;;;;;2.41;75.63;101051.50;4417754;32;20042;-76
2021/01/07 00:59:07;;;;;;;22.25;10.38;;;;;;;2.49;75.77;101048.47;4420433;32;20407;-78
2021/01/07 01:01:41;;;;;;;21.45;9.95;;;;;;;2.55;75.46;101048.94;4414042;32;20053;-76
2021/01/07 01:04:07;;;;;;;24.27;10.48;;;;;;;2.56;75.40;101043.00;4420713;32;20057;-74
2021/01/07 01:06:32;;;;;;;25.12;11.02;;;;;;;2.56;75.04;101048.56;4419361;32;20106;-77
2021/01/07 01:08:59;;;;;;;20.45;9.57;;;;;;;2.61;75.28;101041.88;4406910;32;20472;-76
2021/01/07 01:11:24;;;;;;;20.70;8.50;;;;;;;2.70;75.26;101031.28;4412331;32;20035;-76
2021/01/07 01:13:50;;;;;;;21.40;8.40;;;;;;;2.67;75.00;101032.03;4414489;32;20332;-74
2021/01/07 01:16:16;;;;;;;16.52;8.32;;;;;;;2.60;75.15;101026.34;4420080;32;20094;-74
2021/01/07 01:18:42;;;;;;;20.75;7.95;;;;;;;2.70;75.20;101023.72;4417745;32;20494;-76
2021/01/07 01:21:08;;;;;;;20.08;7.68;;;;;;;2.63;74.83;101015.31;4413800;32;20133;-78
2021/01/07 01:23:33;;;;;;;14.68;6.40;;;;;;;2.71;74.64;101018.97;4419794;32;20304;-78
2021/01/07 01:25:59;;;;;;;15.43;6.82;;;;;;;2.74;74.72;101015.44;4420846;32;20094;-78
2021/01/07 01:28:24;;;;;;;15.20;6.93;;;;;;;2.71;74.65;101008.66;4411946;32;20100;-77
2021/01/07 01:30:50;;;;;;;19.20;7.43;;;;;;;2.76;74.00;101007.53;4419138;32;20046;-78
2021/01/07 01:33:16;;;;;;;18.77;7.32;;;;;;;2.74;73.91;101009.87;4416597;32;20430;-76
2021/01/07 01:35:41;;;;;;;19.15;7.90;;;;;;;2.72;74.49;100996.37;4411602;32;20026;-77
2021/01/07 01:38:07;;;;;;;18.25;7.25;;;;;;;2.66;74.61;101002.63;4410356;32;20169;-78
2021/01/07 01:40:32;;;;;;;15.85;6.90;;;;;;;2.55;75.03;100994.19;4415960;32;20106;-77
2021/01/07 01:42:58;;;;;;;18.15;7.47;;;;;;;2.52;75.92;100989.37;4417574;32;20023;-77
2021/01/07 01:45:24;;;;;;;19.35;7.78;;;;;;;2.48;76.03;100991.31;4415288;32;20039;-77
2021/01/07 01:47:49;;;;;;;15.65;6.40;;;;;;;2.42;76.16;100992.81;4414475;32;20117;-77
2021/01/07 01:50:15;;;;;;;15.85;7.28;;;;;;;2.37;76.29;100984.03;4418082;32;20109;-76
2021/01/07 01:52:41;;;;;;;18.27;7.37;;;;;;;2.40;76.18;100988.81;4414764;32;20038;-76
2021/01/07 01:55:07;;;;;;;16.50;7.50;;;;;;;2.40;76.05;100988.81;4416178;32;20065;-79
2021/01/07 01:57:33;;;;;;;20.10;8.55;;;;;;;2.39;75.78;100985.22;4416497;32;20064;-75
2021/01/07 01:59:59;;;;;;;18.52;7.60;;;;;;;2.31;75.25;100991.09;4417294;32;20038;-76
2021/01/07 02:02:24;;;;;;;18.70;8.10;;;;;;;2.25;75.99;100990.63;4412521;32;20056;-77
2021/01/07 02:04:50;;;;;;;19.62;7.90;;;;;;;2.24;76.10;100991.00;4415484;32;20024;-76
2021/01/07 02:07:20;;;;;;;18.17;7.75;;;;;;;2.23;75.94;100994.94;4420787;32;20038;-76
2021/01/07 02:09:47;;;;;;;15.90;6.85;;;;;;;2.21;76.30;101002.84;4417935;32;20387;-77
2021/01/07 02:12:14;;;;;;;20.25;7.40;;;;;;;2.15;76.23;100994.06;4416755;32;20050;-77
2021/01/07 02:14:42;;;;;;;15.98;6.97;;;;;;;2.15;76.06;101001.56;4414740;32;20062;-76
2021/01/07 02:17:08;;;;;;;14.80;6.50;;;;;;;2.04;76.29;100996.69;4411818;32;20084;-76
2021/01/07 02:19:34;;;;;;;14.82;6.45;;;;;;;1.96;77.00;100997.75;4418063;32;20026;-76
2021/01/07 02:22:01;;;;;;;13.88;5.87;;;;;;;1.96;77.17;101003.28;4412840;32;20074;-75
2021/01/07 02:24:29;;;;;;;17.27;6.03;;;;;;;1.97;77.12;101004.09;4409086;32;20025;-78
2021/01/07 02:27:00;;;;;;;18.95;6.55;;;;;;;1.99;76.85;101008.09;4416828;32;20018;-77
2021/01/07 02:29:25;;;;;;;15.00;5.75;;;;;;;1.91;76.31;101009.16;4414656;32;20052;-78
2021/01/07 02:31:51;;;;;;;15.13;6.53;;;;;;;1.94;76.54;100996.53;4412419;32;20043;-77
2021/01/07 02:34:17;;;;;;;13.98;6.18;;;;;;;1.89;76.71;101002.38;4418010;32;20442;-77
2021/01/07 02:36:42;;;;;;;12.52;6.03;;;;;;;1.82;76.75;101005.88;4419814;32;20418;-74
2021/01/07 02:39:08;;;;;;;12.82;5.50;;;;;;;1.77;77.08;101008.12;4407759;32;20053;-76
2021/01/07 02:41:33;;;;;;;20.58;6.22;;;;;;;1.69;77.01;100996.13;4415318;32;20520;-75
2021/01/07 02:43:59;;;;;;;12.63;4.93;;;;;;;1.69;77.27;101006.44;4415812;32;20046;-77
2021/01/07 02:46:25;;;;;;;10.23;4.90;;;;;;;1.77;77.40;101000.63;4410496;32;20121;-77
2021/01/07 02:48:50;;;;;;;16.83;5.57;;;;;;;1.74;77.27;100989.47;4419150;32;20065;-78
2021/01/07 02:51:16;;;;;;;11.45;4.60;;;;;;;1.76;77.25;100995.47;4417323;32;20052;-76
2021/01/07 02:53:42;;;;;;;15.75;5.12;;;;;;;1.78;76.87;100991.12;4419339;32;20080;-78
2021/01/07 02:56:07;;;;;;;9.68;4.72;;;;;;;1.77;76.71;100994.28;4418207;32;20029;-76
2021/01/07 02:58:33;;;;;;;12.68;4.40;;;;;;;1.77;76.90;100997.84;4418768;32;20037;-76
2021/01/07 03:00:59;;;;;;;14.32;4.95;;;;;;;1.82;76.60;100988.41;4408007;32;20087;-77
2021/01/07 03:03:25;;;;;;;9.77;4.12;;;;;;;1.74;76.77;100990.28;4408211;32;20086;-76
2021/01/07 03:05:50;;;;;;;8.77;3.97;;;;;;;1.79;76.18;100981.66;4419484;32;20060;-76
2021/01/07 03:08:16;;;;;;;9.52;4.35;;;;;;;1.77;76.21;100989.53;4417643;32;20038;-78
2021/01/07 03:10:42;;;;;;;9.65;4.22;;;;;;;1.74;76.16;100987.50;4412398;32;20888;-76
2021/01/07 03:13:07;;;;;;;9.45;4.30;;;;;;;1.75;75.73;100964.12;4414256;32;20026;-76
2021/01/07 03:15:33;;;;;;;10.25;3.83;;;;;;;1.72;75.72;100981.53;4409503;32;20424;-77
2021/01/07 03:17:59;;;;;;;10.38;3.55;;;;;;;1.74;75.86;100970.84;4413143;32;20117;-75
2021/01/07 03:20:24;;;;;;;5.50;3.10;;;;;;;1.74;75.83;100983.91;4417504;32;20093;-77
2021/01/07 03:22:50;;;;;;;11.35;5.05;;;;;;;1.71;75.52;100971.59;4414707;32;20075;-78
2021/01/07 03:25:17;;;;;;;11.75;3.90;;;;;;;1.62;75.52;100965.53;4413963;32;20037;-76
2021/01/07 03:27:43;;;;;;;9.15;4.10;;;;;;;1.61;75.48;100974.22;4409388;32;20046;-77
2021/01/07 03:30:09;;;;;;;7.82;3.20;;;;;;;1.63;76.01;100969.09;4414858;32;20088;-76
2021/01/07 03:32:36;;;;;;;8.18;3.05;;;;;;;1.61;76.04;100965.87;4403095;32;20542;-76
2021/01/07 03:35:04;;;;;;;8.48;4.15;;;;;;;1.65;75.71;100958.41;4416142;32;20052;-75
2021/01/07 03:37:30;;;;;;;9.13;3.37;;;;;;;1.62;75.49;100965.53;4405621;32;20057;-77
2021/01/07 03:39:56;;;;;;;8.38;3.50;;;;;;;1.53;75.24;100955.84;4414119;32;20097;-76
2021/01/07 03:42:21;;;;;;;8.13;2.85;;;;;;;1.55;75.68;100957.09;4412239;32;20038;-77
2021/01/07 03:44:47;;;;;;;8.02;3.17;;;;;;;1.48;75.58;100961.72;4411836;32;20410;-76
2021/01/07 03:47:13;;;;;;;8.05;3.10;;;;;;;1.47;75.89;100952.59;4409512;32;20034;-77
2021/01/07 03:49:38;;;;;;;12.85;3.80;;;;;;;1.51;75.69;100952.66;4411308;32;20101;-75
2021/01/07 03:52:04;;;;;;;10.55;3.35;;;;;;;1.47;75.30;100947.06;4417745;32;20038;-78
2021/01/07 03:54:30;;;;;;;8.32;3.45;;;;;;;1.43;75.49;100948.97;4412635;32;20354;-77
2021/01/07 03:56:55;;;;;;;7.10;3.67;;;;;;;1.44;75.54;100950.56;4411810;32;20026;-77
2021/01/07 03:59:21;;;;;;;8.07;3.90;;;;;;;1.47;75.42;100943.47;4419500;32;20030;-77
2021/01/07 04:01:46;;;;;;;9.23;3.87;;;;;;;1.46;75.35;100944.66;4412552;32;20157;-76
2021/01/07 04:04:12;;;;;;;7.68;3.70;;;;;;;1.41;75.23;100943.00;4417517;32;20157;-74
2021/01/07 04:06:38;;;;;;;9.48;3.90;;;;;;;1.39;75.50;100939.81;4409828;32;20049;-77
2021/01/07 04:09:04;;;;;;;9.85;3.85;;;;;;;1.38;75.40;100938.19;4418107;32;20058;-78
2021/01/07 04:11:30;;;;;;;9.85;3.85;;;;;;;1.35;75.29;100938.94;4409840;32;20034;-76
2021/01/07 04:13:56;;;;;;;10.13;3.22;;;;;;;1.23;75.47;100939.13;4405737;32;20473;-77
2021/01/07 04:16:21;;;;;;;6.30;3.22;;;;;;;1.21;75.47;100933.19;4408446;32;20073;-75
2021/01/07 04:18:47;;;;;;;7.78;3.00;;;;;;;1.16;75.73;100936.25;4410940;32;20138;-77
2021/01/07 04:21:16;;;;;;;7.78;3.35;;;;;;;1.16;75.94;100933.47;4407570;32;20046;-75
2021/01/07 04:23:42;;;;;;;10.70;3.15;;;;;;;1.20;75.89;100934.31;4412667;32;20064;-77
2021/01/07 04:26:08;;;;;;;8.57;3.60;;;;;;;1.17;75.90;100940.62;4405611;32;20035;-78
2021/01/07 04:28:34;;;;;;;8.02;3.72;;;;;;;1.17;75.47;100939.81;4414207;32;20030;-76
2021/01/07 04:31:00;;;;;;;7.25;3.10;;;;;;;1.17;75.48;100939.81;4404703;32;20055;-76
2021/01/07 04:33:25;;;;;;;9.85;3.58;;;;;;;1.13;75.64;100937.00;4417393;32;20033;-78
2021/01/07 04:35:51;;;;;;;9.25;3.35;;;;;;;1.06;75.79;100941.59;4418025;32;20050;-76
2021/01/07 04:38:16;;;;;;;7.80;3.33;;;;;;;1.04;76.27;100939.22;4417554;32;20238;-76
2021/01/07 04:40:42;;;;;;;9.73;3.58;;;;;;;1.02;76.32;100941.56;4410644;32;20085;-75
2021/01/07 04:43:08;;;;;;;6.57;2.87;;;;;;;0.99;76.42;100938.72;4414926;32;20100;-77
2021/01/07 04:45:33;;;;;;;8.68;2.87;;;;;;;0.96;76.60;100939.47;4415183;32;20033;-76
2021/01/07 04:48:01;;;;;;;6.15;2.87;;;;;;;0.99;76.18;100931.22;4413930;32;20329;-77
2021/01/07 04:50:26;;;;;;;7.68;2.90;;;;;;;1.01;75.89;100939.94;4409601;32;20085;-77
2021/01/07 04:52:52;;;;;;;8.25;3.17;;;;;;;0.96;76.21;100929.19;4415956;32;20030;-76
2021/01/07 04:55:20;;;;;;;8.00;2.80;;;;;;;0.99;76.02;100931.22;4416002;32;20038;-76
2021/01/07 04:57:46;;;;;;;6.72;3.28;;;;;;;0.95;76.33;100930.34;4409632;32;20470;-76
2021/01/07 05:00:13;;;;;;;8.07;3.12;;;;;;;0.91;76.56;100936.97;4421020;32;20057;-76
2021/01/07 05:02:39;;;;;;;8.68;3.25;;;;;;;0.93;76.36;100938.25;4411826;32;20078;-77
2021/01/07 05:05:07;;;;;;;7.25;3.10;;;;;;;0.93;76.24;100935.47;4409550;32;20076;-75
2021/01/07 05:07:37;;;;;;;9.02;3.25;;;;;;;0.92;76.03;100939.38;4411108;32;20458;-75
2021/01/07 05:10:06;;;;;;;9.32;2.85;;;;;;;0.97;75.64;100927.19;4406582;32;20089;-75
2021/01/07 05:12:33;;;;;;;6.12;3.20;;;;;;;0.89;75.07;100920.72;4405470;32;20042;-77
2021/01/07 05:14:59;;;;;;;8.68;3.78;;;;;;;0.91;75.39;100923.94;4411669;32;20354;-75
2021/01/07 05:17:24;;;;;;;9.82;3.53;;;;;;;0.87;75.60;100920.31;4414324;32;20117;-77
2021/01/07 05:19:50;;;;;;;9.68;3.72;;;;;;;0.92;75.78;100924.75;4414713;32;20060;-76
2021/01/07 05:22:16;;;;;;;6.45;3.53;;;;;;;0.91;75.83;100923.94;4409500;32;20378;-76
2021/01/07 05:24:41;;;;;;;7.75;3.50;;;;;;;0.88;76.05;100924.69;4418497;32;20113;-76
2021/01/07 05:27:11;;;;;;;7.68;3.55;;;;;;;0.87;76.09;100920.31;4414171;32;20100;-76
2021/01/07 05:29:40;;;;;;;11.77;3.62;;;;;;;0.88;76.24;100919.13;4417094;32;20061;-77
2021/01/07 05:32:07;;;;;;;8.32;3.80;;;;;;;0.86;75.93;100923.47;4407118;32;20049;-76
2021/01/07 05:34:44;;;;;;;8.55;3.60;;;;;;;0.87;75.98;100920.31;4416803;32;20054;-77
2021/01/07 05:37:16;;;;;;;7.12;3.22;;;;;;;0.88;75.64;100916.38;4417433;32;20065;-74
2021/01/07 05:39:44;;;;;;;10.27;3.97;;;;;;;0.89;75.54;100908.88;4416821;32;20159;-78
2021/01/07 05:42:11;;;;;;;12.90;4.43;;;;;;;0.80;76.08;100911.06;4414832;32;20484;-75
2021/01/07 05:44:44;;;;;;;12.15;4.82;;;;;;;0.84;76.05;100911.94;4408919;32;20031;-76
2021/01/07 05:47:10;;;;;;;10.55;4.22;;;;;;;0.81;76.31;100907.94;4413137;32;20089;-78
2021/01/07 05:49:37;;;;;;;8.02;4.32;;;;;;;0.82;76.41;100903.19;4407334;32;20133;-77
2021/01/07 05:52:06;;;;;;;14.80;5.10;;;;;;;0.81;76.48;100898.81;4405024;32;20076;-78
2021/01/07 05:54:33;;;;;;;9.23;4.93;;;;;;;0.88;76.27;100901.69;4413746;32;20064;-78
2021/01/07 05:57:03;;;;;;;11.30;4.62;;;;;;;0.79;76.29;100898.37;4418798;32;20059;-76
2021/01/07 05:59:32;;;;;;;11.98;4.62;;;;;;;0.79;76.33;100899.19;4412742;32;20069;-76
2021/01/07 06:02:03;;;;;;;11.02;5.30;;;;;;;0.87;76.36;100900.94;4413437;32;20076;-77
2021/01/07 06:04:33;;;;;;;11.50;4.90;;;;;;;0.86;76.22;100899.31;4420182;32;20347;-76
2021/01/07 06:06:59;;;;;;;11.85;4.90;;;;;;;0.84;76.02;100896.12;4414046;32;20105;-75
2021/01/07 06:09:28;;;;;;;11.45;5.53;;;;;;;0.86;75.70;100896.53;4416456;32;20495;-78
2021/01/07 06:11:57;;;;;;;11.65;5.72;;;;;;;0.88;76.01;100888.66;4417554;32;20053;-76
2021/01/07 06:14:23;;;;;;;12.80;5.53;;;;;;;0.84;75.65;100900.84;4418894;32;20324;-77
2021/01/07 06:16:49;;;;;;;13.13;5.87;;;;;;;0.83;76.33;100893.72;4417904;32;20033;-78
2021/01/07 06:19:32;;;;;;;10.85;5.20;;;;;;;0.86;76.14;100899.31;4412311;32;20372;-77
2021/01/07 06:21:59;;;;;;;13.82;6.05;;;;;;;0.92;75.92;100902.59;4405751;32;20074;-75
2021/01/07 06:24:26;;;;;;;11.57;5.62;;;;;;;0.82;75.87;100904.00;4411740;32;20431;-79
2021/01/07 06:26:52;;;;;;;18.17;7.87;;;;;;;0.82;76.78;100904.00;4408851;32;20376;-78
2021/01/07 06:29:17;;;;;;;19.40;8.00;;;;;;;0.81;76.71;100904.38;4404462;32;20182;-76
2021/01/07 06:31:43;;;;;;;12.23;6.37;;;;;;;0.82;76.64;100897.63;4405335;32;20034;-78
2021/01/07 06:34:12;;;;;;;12.55;5.57;;;;;;;0.86;76.44;100899.31;4417205;32;20057;-76
2021/01/07 06:36:41;;;;;;;14.15;5.53;;;;;;;0.92;76.20;100897.03;4417965;32;20111;-78
2021/01/07 06:39:08;;;;;;;12.73;5.28;;;;;;;0.92;76.35;100892.28;4417019;32;20427;-77
2021/01/07 06:41:34;;;;;;;12.37;5.35;;;;;;;0.97;76.33;100889.22;4414478;32;20090;-76
2021/01/07 06:44:03;;;;;;;12.40;5.35;;;;;;;0.95;76.88;100893.53;4412737;32;20414;-76
2021/01/07 06:46:47;;;;;;;12.77;6.07;;;;;;;1.04;77.26;100892.09;4411632;32;20052;-75
2021/01/07 06:49:30;;;;;;;19.40;7.55;;;;;;;1.05;76.99;100890.94;4418388;32;20458;-76
2021/01/07 06:52:02;;;;;;;19.58;7.62;;;;;;;1.11;77.48;100891.44;4409472;32;20042;-77
2021/01/07 06:54:46;;;;;;;19.33;7.18;;;;;;;1.16;77.69;100891.09;4417208;32;20511;-77
2021/01/07 06:57:12;;;;;;;16.90;7.53;;;;;;;1.18;77.88;100883.22;4412920;32;20131;-77
2021/01/07 07:00:00;;;;;;;16.92;10.00;;;;;;;1.26;77.77;100885.72;4415201;32;20123;-77
2021/01/07 07:02:27;;;;;;;16.17;7.45;;;;;;;1.35;77.41;100885.47;4414892;32;20049;-76
2021/01/07 07:12:54;;;;;;;15.85;7.10;;;;;;;1.87;74.49;100900.09;3988877;32;15024849;-78
2021/01/07 07:15:23;;;;;;;12.80;6.50;;;;;;;1.87;74.49;100900.09;4439475;32;20096;-76
2021/01/07 07:17:53;;;;;;;14.55;7.40;;;;;;;1.44;75.10;100892.34;4436476;32;20033;-77
2021/01/07 07:20:20;;;;;;;19.37;8.18;;;;;;;1.38;75.92;100888.28;4441375;32;20061;-77
2021/01/07 07:22:46;;;;;;;22.73;8.45;;;;;;;1.36;76.26;100884.28;4440833;32;20056;-77
2021/01/07 07:25:13;;;;;;;16.77;7.97;;;;;;;1.37;76.62;100883.12;4444212;32;20022;-77
2021/01/07 07:27:55;;;;;;;16.10;7.57;;;;;;;1.37;76.49;100883.91;4437908;32;20105;-75
2021/01/07 07:33:00;;;;;;;19.12;8.82;;;;;;;1.89;75.46;100892.19;3988834;32;15022756;-75
2021/01/07 07:38:10;;;;;;;21.25;9.43;;;;;;;1.58;76.20;100900.88;4019132;31;15017433;-75
2021/01/07 07:40:37;;;;;;;25.30;9.70;;;;;;;1.49;76.42;100897.56;4463430;32;20402;-76
2021/01/07 07:43:05;;;;;;;19.60;8.75;;;;;;;1.54;76.28;100899.22;4471087;32;20381;-77
2021/01/07 07:45:34;;;;;;;19.35;8.95;;;;;;;1.46;76.37;100903.88;4472109;32;20029;-76
2021/01/07 07:48:00;;;;;;;20.88;9.23;;;;;;;1.43;76.68;100893.53;4476410;32;20111;-77
2021/01/07 07:50:28;;;;;;;21.48;10.00;;;;;;;1.43;76.76;100901.03;4454743;32;20068;-77
2021/01/07 07:53:11;;;;;;;21.42;9.98;;;;;;;1.42;76.79;100911.34;4477196;32;20041;-77
2021/01/07 07:55:41;;;;;;;23.25;10.07;;;;;;;1.44;77.08;100917.28;4477170;32;20033;-77
2021/01/07 08:00:52;;;;;;;31.08;11.88;;;;;;;1.89;75.44;100933.00;3987081;31;15711066;-78
2021/01/07 08:03:23;;;;;;;24.30;10.77;;;;;;;1.89;75.44;100933.00;4464937;32;20143;-78
2021/01/07 08:05:48;;;;;;;24.70;10.25;;;;;;;1.44;76.88;100930.38;4466204;32;20397;-78
2021/01/07 08:08:23;;;;;;;28.40;10.95;;;;;;;1.38;76.57;100929.88;4465469;32;20083;-78
2021/01/07 08:10:49;;;;;;;25.52;10.70;;;;;;;1.41;76.59;100931.91;4462691;32;20081;-78
2021/01/07 08:13:18;;;;;;;24.45;10.25;;;;;;;1.31;76.87;100927.00;4462331;32;20037;-77
2021/01/07 08:15:49;;;;;;;23.50;10.60;;;;;;;1.34;77.39;100936.53;4473237;32;20067;-77
2021/01/07 08:21:06;;;;;;;27.35;11.77;;;;;;;1.85;75.91;100941.44;3981448;32;15024680;-77
2021/01/07 08:23:32;;;;;;;28.92;12.37;;;;;;;1.86;75.92;100944.84;4428207;32;20038;-78
2021/01/07 08:26:00;;;;;;;29.52;11.32;;;;;;;1.42;76.89;100939.06;4426987;32;20053;-77
2021/01/07 08:28:40;;;;;;;26.17;11.07;;;;;;;1.40;76.95;100935.84;4432186;32;20088;-79
2021/01/07 08:31:13;;;;;;;22.70;10.38;;;;;;;1.43;76.69;100940.66;4432879;32;20064;-80
2021/01/07 08:33:38;;;;;;;24.02;11.23;;;;;;;1.44;76.14;100936.72;4432277;32;20441;-79
2021/01/07 08:36:09;;;;;;;24.10;11.73;;;;;;;1.46;76.52;100942.69;4431984;32;20030;-78
2021/01/07 08:38:36;;;;;;;23.77;11.60;;;;;;;1.44;76.42;100945.03;4430311;32;20034;-79
2021/01/07 08:44:01;;;;;;;25.67;11.48;;;;;;;1.56;76.49;100955.91;3991609;32;15022172;-78
2021/01/07 08:46:37;;;;;;;22.13;11.10;;;;;;;1.52;76.09;100946.75;4437025;32;20046;-78
2021/01/07 08:56:53;;;;;;;26.25;10.93;;;;;;;2.13;75.19;100943.66;3990940;32;15028025;-80
2021/01/07 09:02:17;;;;;;;24.40;10.20;;;;;;;1.83;75.97;100937.28;3973159;32;15026879;-79
2021/01/07 09:04:43;;;;;;;23.80;10.43;;;;;;;1.76;76.04;100938.00;4435680;32;20200;-80
2021/01/07 09:09:50;;;;;;;27.20;10.85;;;;;;;2.36;74.94;100932.44;4002334;32;15062307;-79
2021/01/07 09:17:44;;;;;;;12.98;5.50;;;;;;;2.26;74.62;100944.19;3989214;32;15022662;-75
2021/01/07 09:22:48;;;;;;;17.52;7.90;;;;;;;2.32;75.73;100943.50;4010915;31;15022562;-79
2021/01/07 09:25:17;;;;;;;17.67;7.53;;;;;;;2.36;75.74;100927.66;4468733;32;20041;-81
2021/01/07 09:27:45;;;;;;;15.15;7.35;;;;;;;2.50;75.10;100927.03;4462697;32;20090;-80
2021/01/07 09:30:12;;;;;;;16.67;7.25;;;;;;;2.58;75.25;100923.16;4471073;32;20086;-80
2021/01/07 09:32:38;;;;;;;12.63;5.47;;;;;;;2.71;75.38;100930.06;4450065;32;20489;-78
2021/01/07 09:35:05;;;;;;;13.68;5.85;;;;;;;2.77;74.85;100928.53;4451211;32;20071;-77
2021/01/07 09:37:34;;;;;;;11.88;5.90;;;;;;;2.93;74.56;100924.34;4461441;32;20096;-78
2021/01/07 09:40:00;;;;;;;12.93;5.87;;;;;;;3.06;74.49;100933.16;4460807;32;20091;-80
2021/01/07 09:42:29;;;;;;;11.52;5.82;;;;;;;3.20;74.34;100933.31;4455604;32;20211;-81
2021/01/07 09:44:56;;;;;;;15.27;6.45;;;;;;;3.42;73.83;100935.88;4457968;32;20037;-78
2021/01/07 09:47:23;;;;;;;12.85;5.43;;;;;;;3.63;73.19;100927.69;4458776;32;22164;-79
2021/01/07 09:49:49;;;;;;;15.30;6.05;;;;;;;3.90;73.13;100928.28;4461408;32;20036;-78
2021/01/07 09:52:15;;;;;;;12.60;5.43;;;;;;;4.09;71.65;100928.75;4446008;32;20394;-80
2021/01/07 09:54:41;;;;;;;14.60;6.72;;;;;;;4.29;71.38;100934.03;4461757;32;20033;-79
2021/01/07 09:57:07;;;;;;;13.98;6.25;;;;;;;4.57;70.82;100932.13;4460325;32;20044;-78
2021/01/07 09:59:34;;;;;;;14.48;5.68;;;;;;;4.82;70.08;100929.44;4447299;32;20068;-77
2021/01/07 10:02:02;;;;;;;11.32;6.15;;;;;;;5.04;69.27;100919.91;4461642;32;20779;-76
2021/01/07 10:04:30;;;;;;;13.35;6.68;;;;;;;5.22;68.60;100921.50;4446762;32;20423;-83
2021/01/07 10:06:56;;;;;;;12.37;6.07;;;;;;;5.36;67.66;100920.69;4461176;32;20136;-82
2021/01/07 10:09:22;;;;;;;18.77;7.00;;;;;;;5.51;67.00;100922.28;4462753;32;20361;-80
2021/01/07 10:11:53;;;;;;;16.67;6.20;;;;;;;5.65;66.23;100923.06;4460506;32;20504;-84
2021/01/07 10:14:20;;;;;;;12.20;5.97;;;;;;;5.79;65.33;100920.25;4449350;32;20041;-78
2021/01/07 10:16:47;;;;;;;15.73;6.22;;;;;;;5.82;65.12;100930.66;4454688;32;20085;-80
2021/01/07 10:19:13;;;;;;;12.00;5.70;;;;;;;5.96;65.01;100915.88;4461291;32;20467;-83
2021/01/07 10:21:40;;;;;;;14.30;6.25;;;;;;;6.00;65.41;100913.84;4459735;32;20049;-80
2021/01/07 10:24:06;;;;;;;13.68;5.93;;;;;;;6.16;64.17;100919.00;4457951;32;20041;-76
2021/01/07 10:26:32;;;;;;;9.90;5.10;;;;;;;6.28;63.89;100916.56;4455877;32;20082;-79
2021/01/07 10:28:58;;;;;;;22.75;10.80;;;;;;;6.36;64.33;100912.53;4461789;32;20048;-79
2021/01/07 10:31:24;;;;;;;8.00;4.68;;;;;;;6.57;63.00;100908.84;4451543;32;20358;-80
2021/01/07 10:33:51;;;;;;;12.32;4.62;;;;;;;6.65;63.45;100902.00;4436528;32;20092;-80
2021/01/07 10:36:18;;;;;;;6.47;3.40;;;;;;;6.74;63.23;100899.53;4448703;32;20077;-79
2021/01/07 10:38:46;;;;;;;11.50;4.75;;;;;;;6.71;62.21;100894.78;4442694;32;20080;-80
2021/01/07 10:41:14;;;;;;;9.38;4.68;;;;;;;6.82;62.80;100884.31;4449321;32;20077;-80
2021/01/07 10:43:41;;;;;;;7.75;4.80;;;;;;;6.90;63.28;100889.44;4450017;32;20099;-79
2021/01/07 10:46:07;;;;;;;8.00;3.90;;;;;;;7.10;63.17;100886.91;4437317;32;20424;-80
2021/01/07 10:48:43;;;;;;;10.98;5.22;;;;;;;7.08;61.72;100884.53;4445727;32;20065;-80
2021/01/07 10:51:09;;;;;;;9.10;4.55;;;;;;;7.24;61.63;100884.03;4439593;32;20034;-80
2021/01/07 10:54:15;;;;;;;14.50;7.05;;;;;;;7.28;61.77;100874.37;4434049;32;20084;-80
2021/01/07 10:57:11;;;;;;;7.15;3.70;;;;;;;7.25;61.16;100874.41;4442487;32;20102;-79
2021/01/07 11:02:34;;;;;;;9.50;5.37;;;;;;;7.10;61.44;100872.94;3985708;32;15022452;-81
2021/01/07 11:05:10;;;;;;;13.57;7.00;;;;;;;7.10;61.44;100872.94;4438621;32;20033;-79
2021/01/07 11:08:03;;;;;;;9.18;4.80;;;;;;;6.65;62.67;100866.44;4441882;32;20069;-79
2021/01/07 11:10:31;;;;;;;7.53;3.92;;;;;;;6.59;62.71;100861.72;4438911;32;20050;-78
2021/01/07 11:13:01;;;;;;;7.80;4.15;;;;;;;6.27;63.94;100867.47;4441127;32;20126;-80
2021/01/07 11:15:28;;;;;;;8.50;4.90;;;;;;;6.38;63.74;100853.44;4443522;32;20080;-78
2021/01/07 11:18:02;;;;;;;9.73;4.50;;;;;;;6.44;63.66;100844.19;4440821;32;20145;-78
2021/01/07 11:20:30;;;;;;;8.50;3.97;;;;;;;6.56;63.84;100848.56;4436669;32;20049;-78
2021/01/07 11:22:56;;;;;;;8.07;3.92;;;;;;;6.72;63.53;100852.41;4436136;32;20057;-79
2021/01/07 11:25:23;;;;;;;7.62;3.37;;;;;;;6.72;62.09;100849.63;4436771;32;20778;-80
2021/01/07 11:27:51;;;;;;;6.40;3.55;;;;;;;6.69;61.67;100849.66;4427912;32;20073;-79
2021/01/07 11:30:17;;;;;;;7.35;4.45;;;;;;;6.74;62.02;100843.63;4439993;32;20571;-79
2021/01/07 11:32:45;;;;;;;9.68;4.35;;;;;;;6.98;62.00;100837.84;4439518;32;20113;-79
2021/01/07 11:35:11;;;;;;;12.85;6.72;;;;;;;7.21;62.04;100837.25;4436973;32;20493;-80
2021/01/07 11:38:03;;;;;;;10.32;5.22;;;;;;;7.12;60.91;100845.34;4431241;32;20115;-80
2021/01/07 11:45:50;;;;;;;9.82;6.22;;;;;;;7.10;61.76;100830.94;3987075;32;15024693;-78
2021/01/07 11:48:19;;;;;;;9.93;5.20;;;;;;;7.10;61.76;100830.94;4436301;32;20055;-80
2021/01/07 11:50:50;;;;;;;15.43;5.62;;;;;;;6.80;61.91;100823.19;4441366;32;20085;-80
2021/01/07 11:53:17;;;;;;;14.27;6.25;;;;;;;6.76;62.40;100816.03;4436490;32;20059;-85
2021/01/07 11:55:42;;;;;;;7.60;4.22;;;;;;;6.94;62.29;100811.09;4435767;32;20431;-81
2021/01/07 11:58:24;;;;;;;12.73;5.93;;;;;;;6.86;61.76;100818.75;4436766;32;20064;-82
2021/01/07 12:00:55;;;;;;;12.25;5.45;;;;;;;6.81;61.24;100805.19;4428985;32;20057;-79
2021/01/07 12:03:26;;;;;;;10.50;4.78;;;;;;;6.93;61.06;100798.34;4438988;32;20098;-83
2021/01/07 12:05:54;;;;;;;10.32;5.00;;;;;;;6.90;61.04;100801.97;4438299;32;20025;-83
2021/01/07 12:08:59;;;;;;;8.23;4.65;;;;;;;7.10;61.46;100797.38;4434430;32;20081;-83
2021/01/07 12:16:46;;;;;;;9.10;3.60;;;;;;;7.85;58.98;100779.34;3989917;32;15026231;-81
2021/01/07 12:19:12;;;;;;;6.70;3.65;;;;;;;7.85;58.98;100779.34;4445926;32;20076;-81
2021/01/07 12:21:39;;;;;;;12.65;4.40;;;;;;;7.64;60.49;100772.00;4442200;32;20488;-82
2021/01/07 12:24:05;;;;;;;8.48;4.37;;;;;;;7.95;58.94;100773.59;4444412;32;20029;-82